Time;durP1;ratioP1;P1;durP2;ratioP2;P2;SDS_P1;SDS_P2;PMS_P1;PMS_P2;Temp;Humidity;BMP_temperature;BMP_pressure;BME280_temperature;BME280_humidity;BME280_pressure;Samples;Min_cycle;Max_cycle;Signal;HPM_P1;HPM_P2
2023/05/05 00:00:51;;;;;;;;;;;;;;;21.34;41.99;101389.78;5115374;27;19923;-72
2023/05/05 00:03:19;;;;;;;;;;;;;;;21.34;41.95;101387.06;5131519;27;19934;-72
2023/05/05 00:05:45;;;;;;;;;;;;;;;21.34;42.08;101383.50;5124314;27;19915;-72
2023/05/05 00:08:10;;;;;;;;;;;;;;;21.34;42.09;101386.22;5116220;28;19911;-72
2023/05/05 00:10:35;;;;;;;;;;;;;;;21.33;41.72;101382.69;5136816;27;20010;-72
2023/05/05 00:13:00;;;;;;;;;;;;;;;21.32;41.82;101378.25;5131074;28;19912;-72
2023/05/05 00:15:26;;;;;;;;;;;;;;;21.33;41.79;101379.13;5129284;28;20456;-72
2023/05/05 00:17:51;;;;;;;;;;;;;;;21.32;41.81;101366.59;5128446;28;19911;-72
2023/05/05 00:20:16;;;;;;;;;;;;;;;21.31;41.80;101363.03;5131599;28;19915;-72
2023/05/05 00:22:41;;;;;;;;;;;;;;;21.32;41.88;101372.00;5130719;28;19916;-72
2023/05/05 00:25:07;;;;;;;;;;;;;;;21.31;41.92;101368.44;5128485;28;19904;-72
2023/05/05 00:27:32;;;;;;;;;;;;;;;21.30;41.95;101366.75;5132037;28;19916;-72
2023/05/05 00:29:57;;;;;;;;;;;;;;;21.29;41.75;101354.25;5132632;28;19941;-73
2023/05/05 00:32:22;;;;;;;;;;;;;;;21.29;42.05;101366.94;5131939;28;20002;-72
2023/05/05 00:34:47;;;;;;;;;;;;;;;21.28;41.99;101365.22;5137887;28;20439;-72
2023/05/05 00:37:13;;;;;;;;;;;;;;;21.27;41.68;101372.50;5128892;28;19911;-72
2023/05/05 00:39:38;;;;;;;;;;;;;;;21.28;41.90;101357.13;5140361;27;19926;-72
2023/05/05 00:42:03;;;;;;;;;;;;;;;21.27;42.08;101371.66;5135334;27;20003;-72
2023/05/05 00:44:33;;;;;;;;;;;;;;;21.26;41.74;101372.69;5115535;28;20014;-72
2023/05/05 00:46:58;;;;;;;;;;;;;;;21.26;42.08;101376.22;5115771;27;20631;-72
2023/05/05 00:49:24;;;;;;;;;;;;;;;21.25;42.00;101371.00;5137487;27;19983;-73
2023/05/05 00:51:49;;;;;;;;;;;;;;;21.23;41.89;101369.28;5132159;27;19923;-72
2023/05/05 00:54:14;;;;;;;;;;;;;;;21.23;41.80;101366.59;5133913;27;19920;-72
2023/05/05 00:56:40;;;;;;;;;;;;;;;21.23;42.04;101357.63;5118831;27;19919;-72
2023/05/05 00:59:05;;;;;;;;;;;;;;;21.22;41.91;101358.66;5135800;27;19950;-72
2023/05/05 01:01:31;;;;;;;;;;;;;;;21.22;41.78;101366.78;5122430;27;19965;-72
2023/05/05 01:03:56;;;;;;;;;;;;;;;21.21;41.93;101362.38;5116885;27;19915;-72
2023/05/05 01:06:26;;;;;;;;;;;;;;;21.21;42.02;101359.69;5136621;27;20352;-73
2023/05/05 01:09:18;;;;;;;;;;;;;;;21.19;42.05;101357.13;5118674;27;19934;-73
2023/05/05 01:11:46;;;;;;;;;;;;;;;21.20;41.77;101360.72;5104189;27;19926;-73
2023/05/05 01:14:31;;;;;;;;;;;;;;;21.19;41.92;101364.41;5137118;27;19998;-73
2023/05/05 01:16:58;;;;;;;;;;;;;;;21.19;42.01;101356.28;5135520;27;19912;-72
2023/05/05 01:19:23;;;;;;;;;;;;;;;21.17;42.05;101356.47;5112283;27;19912;-72
2023/05/05 01:22:08;;;;;;;;;;;;;;;21.17;41.91;101366.44;5118934;27;19933;-72
2023/05/05 01:24:53;;;;;;;;;;;;;;;21.17;41.77;101361.03;5134572;27;19947;-72
2023/05/05 01:27:20;;;;;;;;;;;;;;;21.17;41.85;101352.94;5133137;27;19912;-72
2023/05/05 01:29:46;;;;;;;;;;;;;;;21.16;41.76;101359.38;5139151;27;19959;-72
2023/05/05 01:32:15;;;;;;;;;;;;;;;21.17;41.83;101361.03;5130430;27;20369;-72
2023/05/05 01:34:44;;;;;;;;;;;;;;;21.16;41.80;101370.19;5139552;27;19935;-73
2023/05/05 01:37:17;;;;;;;;;;;;;;;21.16;42.12;101356.66;5114794;28;20189;-72
2023/05/05 01:39:42;;;;;;;;;;;;;;;21.15;41.83;101354.94;5117031;27;19912;-72
2023/05/05 01:42:09;;;;;;;;;;;;;;;21.15;41.70;101357.66;5134921;27;19947;-72
2023/05/05 01:44:35;;;;;;;;;;;;;;;21.15;41.95;101357.66;5132898;27;19975;-73
2023/05/05 01:47:00;;;;;;;;;;;;;;;21.14;42.11;101356.81;5128433;27;19912;-72
2023/05/05 01:49:26;;;;;;;;;;;;;;;21.14;41.72;101361.38;5134703;27;19934;-72
2023/05/05 01:51:51;;;;;;;;;;;;;;;21.13;41.83;101365.09;5115048;27;19923;-72
2023/05/05 01:54:17;;;;;;;;;;;;;;;21.13;41.96;101363.25;5126847;27;19912;-72
2023/05/05 01:56:42;;;;;;;;;;;;;;;21.12;41.94;101369.69;5121029;27;19979;-73
2023/05/05 01:59:07;;;;;;;;;;;;;;;21.11;42.05;101370.69;5114000;27;19911;-72
2023/05/05 02:01:34;;;;;;;;;;;;;;;21.12;41.84;101382.34;5121736;27;19963;-72
2023/05/05 02:04:00;;;;;;;;;;;;;;;21.10;42.01;101374.41;5134786;27;19998;-72
2023/05/05 02:06:25;;;;;;;;;;;;;;;21.11;41.66;101380.63;5128777;27;19992;-72
2023/05/05 02:08:51;;;;;;;;;;;;;;;21.10;41.85;101393.31;5117128;27;19915;-72
2023/05/05 02:11:17;;;;;;;;;;;;;;;21.10;41.92;101393.31;5132551;27;19967;-72
2023/05/05 02:13:42;;;;;;;;;;;;;;;21.09;41.97;101394.34;5113779;27;19912;-72
2023/05/05 02:16:07;;;;;;;;;;;;;;;21.09;41.70;101390.81;5111497;28;19920;-72
2023/05/05 02:18:34;;;;;;;;;;;;;;;21.09;41.68;101390.81;5116755;28;19939;-72
2023/05/05 02:20:59;;;;;;;;;;;;;;;21.08;41.95;101398.06;5134474;27;19956;-72
2023/05/05 02:23:25;;;;;;;;;;;;;;;21.08;42.06;101391.81;5135601;27;19923;-72
2023/05/05 02:25:52;;;;;;;;;;;;;;;21.07;42.00;101385.56;5133302;27;19912;-72
2023/05/05 02:28:19;;;;;;;;;;;;;;;21.07;41.97;101384.72;5125293;27;19922;-72
2023/05/05 02:30:46;;;;;;;;;;;;;;;21.05;42.03;101395.69;5119002;27;19922;-72
2023/05/05 02:33:11;;;;;;;;;;;;;;;21.06;42.03;101383.03;5114629;27;19911;-71
2023/05/05 02:35:40;;;;;;;;;;;;;;;21.05;41.94;101390.28;5117328;27;19919;-72
2023/05/05 02:38:06;;;;;;;;;;;;;;;21.05;41.82;101397.56;5112280;27;19912;-72
2023/05/05 02:40:32;;;;;;;;;;;;;;;21.04;42.04;101390.47;5110890;28;19949;-73
2023/05/05 02:42:58;;;;;;;;;;;;;;;21.03;42.07;101384.22;5113986;28;19912;-72
2023/05/05 02:45:23;;;;;;;;;;;;;;;21.03;42.05;101383.38;5133278;27;19919;-73
2023/05/05 02:47:49;;;;;;;;;;;;;;;21.03;42.00;101378.81;5113547;27;19919;-72
2023/05/05 02:50:14;;;;;;;;;;;;;;;21.02;41.78;101370.88;5134717;27;19927;-72
2023/05/05 02:52:40;;;;;;;;;;;;;;;21.02;42.02;101378.97;5105956;27;19923;-72
2023/05/05 02:55:05;;;;;;;;;;;;;;;21.02;41.77;101384.38;5125681;27;19941;-72
2023/05/05 02:57:33;;;;;;;;;;;;;;;21.01;41.78;101380.00;5118310;27;19919;-73
2023/05/05 03:00:04;;;;;;;;;;;;;;;21.01;41.94;101380.84;5112166;27;19935;-72
2023/05/05 03:02:52;;;;;;;;;;;;;;;21.00;42.02;101372.91;5121044;27;19919;-72
2023/05/05 03:05:21;;;;;;;;;;;;;;;20.99;42.09;101374.78;5118475;27;19916;-72
2023/05/05 03:08:01;;;;;;;;;;;;;;;20.97;41.85;101371.38;5100161;27;19979;-72
2023/05/05 03:10:28;;;;;;;;;;;;;;;20.97;42.04;101369.50;5112802;28;19916;-72
2023/05/05 03:12:54;;;;;;;;;;;;;;;20.97;41.85;101363.28;5132090;27;20322;-71
2023/05/05 03:15:24;;;;;;;;;;;;;;;20.96;41.73;101362.44;5112392;27;19979;-72
2023/05/05 03:17:50;;;;;;;;;;;;;;;20.95;42.06;101374.25;5132242;27;19911;-73
2023/05/05 03:20:15;;;;;;;;;;;;;;;20.95;41.83;101362.63;5112453;28;19915;-72
2023/05/05 03:22:40;;;;;;;;;;;;;;;20.94;41.79;101363.59;5117883;27;19996;-72
2023/05/05 03:25:05;;;;;;;;;;;;;;;20.94;42.06;101353.66;5136617;27;19960;-72
2023/05/05 03:27:30;;;;;;;;;;;;;;;20.93;42.18;101365.47;5130562;27;19915;-72
2023/05/05 03:29:56;;;;;;;;;;;;;;;20.93;42.01;101384.38;5134664;27;19979;-73
2023/05/05 03:32:22;;;;;;;;;;;;;;;20.92;42.08;101388.13;5132248;27;19975;-72
2023/05/05 03:34:48;;;;;;;;;;;;;;;20.92;42.11;101396.22;5124488;27;19916;-72
2023/05/05 03:37:13;;;;;;;;;;;;;;;20.92;42.06;101389.97;5100542;27;19918;-72
2023/05/05 03:39:38;;;;;;;;;;;;;;;20.92;41.85;101400.78;5112003;27;20598;-72
2023/05/05 03:42:03;;;;;;;;;;;;;;;20.91;42.15;101407.22;5130502;27;19918;-72
2023/05/05 03:44:29;;;;;;;;;;;;;;;20.90;41.86;101413.66;5130863;27;19911;-72
2023/05/05 03:46:54;;;;;;;;;;;;;;;20.90;42.11;101427.16;5131383;27;19949;-72
2023/05/05 03:49:19;;;;;;;;;;;;;;;20.89;42.11;101420.88;5131428;27;19937;-72
2023/05/05 03:51:45;;;;;;;;;;;;;;;20.90;42.05;101427.16;5140079;27;19919;-73
2023/05/05 03:54:11;;;;;;;;;;;;;;;20.89;41.94;101420.03;5131184;27;19919;-72
2023/05/05 03:56:36;;;;;;;;;;;;;;;20.87;42.17;101430.19;5134843;27;20005;-72
2023/05/05 03:59:01;;;;;;;;;;;;;;;20.87;42.15;101438.28;5114372;28;19912;-72
2023/05/05 04:01:28;;;;;;;;;;;;;;;20.86;41.87;101437.47;5129516;27;19933;-72
2023/05/05 04:03:53;;;;;;;;;;;;;;;20.85;42.13;101438.44;5132497;27;19922;-72
2023/05/05 04:06:19;;;;;;;;;;;;;;;20.86;42.07;101442.03;5129588;27;19920;-72
2023/05/05 04:08:44;;;;;;;;;;;;;;;20.84;42.15;101434.06;5108882;28;19912;-72
2023/05/05 04:11:09;;;;;;;;;;;;;;;20.85;41.90;101440.31;5129929;27;19919;-73
2023/05/05 04:13:34;;;;;;;;;;;;;;;20.83;42.18;101443.19;5132829;27;20150;-73
2023/05/05 04:16:00;;;;;;;;;;;;;;;20.83;41.89;101440.50;5129278;28;19947;-72
2023/05/05 04:18:25;;;;;;;;;;;;;;;20.83;41.93;101439.66;5133150;28;19915;-72
2023/05/05 04:20:50;;;;;;;;;;;;;;;20.82;42.06;101440.66;5131599;28;20031;-72
2023/05/05 04:23:15;;;;;;;;;;;;;;;20.82;42.19;101448.78;5134806;28;20014;-72
2023/05/05 04:25:40;;;;;;;;;;;;;;;20.81;42.07;101464.13;5121551;28;19916;-72
2023/05/05 04:28:05;;;;;;;;;;;;;;;20.80;42.03;101470.53;5129547;28;19983;-72
2023/05/05 04:30:31;;;;;;;;;;;;;;;20.81;42.06;101476.78;5112789;28;19916;-72
2023/05/05 04:32:56;;;;;;;;;;;;;;;20.80;41.94;101480.50;5130011;28;19954;-72
2023/05/05 04:35:22;;;;;;;;;;;;;;;20.80;42.28;101484.06;5129674;28;19943;-72
2023/05/05 04:37:47;;;;;;;;;;;;;;;20.79;41.88;101482.38;5130253;28;19982;-72
2023/05/05 04:40:12;;;;;;;;;;;;;;;20.79;42.04;101481.53;5124759;28;20397;-72
2023/05/05 04:42:37;;;;;;;;;;;;;;;20.78;42.09;101488.81;5129124;28;19923;-72
2023/05/05 04:45:03;;;;;;;;;;;;;;;20.78;42.12;101483.41;5132150;28;19919;-72
2023/05/05 04:47:28;;;;;;;;;;;;;;;20.78;41.95;101483.41;5104541;28;19916;-73
2023/05/05 04:49:53;;;;;;;;;;;;;;;20.77;41.92;101495.19;5134200;27;19929;-72
2023/05/05 04:52:19;;;;;;;;;;;;;;;20.77;42.19;101483.53;5118994;28;19919;-72
2023/05/05 04:54:44;;;;;;;;;;;;;;;20.76;42.21;101489.97;5128297;28;19912;-72
2023/05/05 04:57:09;;;;;;;;;;;;;;;20.76;42.25;101489.97;5124900;28;19995;-73
2023/05/05 04:59:35;;;;;;;;;;;;;;;20.75;42.01;101489.13;5111958;28;19912;-76
2023/05/05 05:02:00;;;;;;;;;;;;;;;20.76;42.02;101493.50;5123420;28;20010;-73
2023/05/05 05:04:26;;;;;;;;;;;;;;;20.76;42.03;101495.38;5129694;28;19923;-72
2023/05/05 05:06:51;;;;;;;;;;;;;;;20.75;42.28;101502.63;5125431;28;19915;-72
2023/05/05 05:09:16;;;;;;;;;;;;;;;20.75;42.25;101502.63;5128610;28;19919;-72
2023/05/05 05:11:41;;;;;;;;;;;;;;;20.75;42.29;101501.78;5129123;28;19920;-71
2023/05/05 05:14:07;;;;;;;;;;;;;;;20.74;42.29;101498.25;5132887;28;19960;-72
2023/05/05 05:16:32;;;;;;;;;;;;;;;20.75;42.65;101510.75;5128959;28;19951;-73
2023/05/05 05:18:57;;;;;;;;;;;;;;;20.76;42.43;101517.00;5136734;28;19987;-73
2023/05/05 05:21:22;;;;;;;;;;;;;;;20.75;42.30;101515.31;5131576;28;20010;-70
2023/05/05 05:23:47;;;;;;;;;;;;;;;20.75;42.57;101512.59;5133478;28;19950;-72
2023/05/05 05:26:12;;;;;;;;;;;;;;;20.75;42.72;101516.16;5134912;27;19915;-73
2023/05/05 05:28:38;;;;;;;;;;;;;;;20.76;42.98;101512.44;5132467;27;19916;-72
2023/05/05 05:31:03;;;;;;;;;;;;;;;20.75;43.03;101516.16;5135496;27;19920;-74
2023/05/05 05:33:28;;;;;;;;;;;;;;;20.76;42.92;101517.00;5131190;27;19916;-73
2023/05/05 05:35:54;;;;;;;;;;;;;;;20.76;43.17;101517.81;5133456;27;19912;-73
2023/05/05 05:38:19;;;;;;;;;;;;;;;20.76;43.32;101517.81;5131149;27;19999;-74
2023/05/05 05:40:44;;;;;;;;;;;;;;;20.77;43.38;101524.06;5136973;27;19918;-73
2023/05/05 05:43:09;;;;;;;;;;;;;;;20.76;43.30;101525.94;5131007;27;19912;-74
2023/05/05 05:45:34;;;;;;;;;;;;;;;20.77;43.32;101526.78;5137650;27;20408;-72
2023/05/05 05:48:00;;;;;;;;;;;;;;;20.78;43.29;101528.50;5133325;27;19912;-70
2023/05/05 05:50:27;;;;;;;;;;;;;;;20.77;43.64;101527.63;5139197;27;19924;-72
2023/05/05 05:52:52;;;;;;;;;;;;;;;20.77;43.63;101535.72;5136236;27;20002;-74
2023/05/05 05:55:17;;;;;;;;;;;;;;;20.78;43.60;101533.91;5134266;27;20284;-71
2023/05/05 05:57:43;;;;;;;;;;;;;;;20.78;43.63;101528.50;5134639;27;20418;-70
2023/05/05 06:00:08;;;;;;;;;;;;;;;20.78;43.90;101540.16;5135484;27;19947;-71
2023/05/05 06:02:33;;;;;;;;;;;;;;;20.79;43.71;101541.00;5134387;27;19923;-72
2023/05/05 06:04:59;;;;;;;;;;;;;;;20.78;43.92;101548.25;5133701;27;19916;-73
2023/05/05 06:07:25;;;;;;;;;;;;;;;20.79;44.03;101541.00;5132741;27;19919;-70
2023/05/05 06:09:50;;;;;;;;;;;;;;;20.78;44.08;101532.03;5131742;27;19961;-70
2023/05/05 06:12:15;;;;;;;;;;;;;;;20.79;44.07;101535.59;5133497;27;19927;-72
2023/05/05 06:14:40;;;;;;;;;;;;;;;20.78;44.09;101533.91;5135541;27;19968;-71
2023/05/05 06:17:05;;;;;;;;;;;;;;;20.79;44.17;101527.47;5137103;27;19926;-70
2023/05/05 06:19:31;;;;;;;;;;;;;;;20.78;44.18;101528.50;5136453;27;19959;-70
2023/05/05 06:21:56;;;;;;;;;;;;;;;20.77;44.29;101527.63;5137118;27;20007;-70
2023/05/05 06:24:21;;;;;;;;;;;;;;;20.78;43.91;101532.03;5114794;27;20290;-70
2023/05/05 06:26:46;;;;;;;;;;;;;;;20.78;43.91;101537.44;5134155;27;20412;-70
2023/05/05 06:29:11;;;;;;;;;;;;;;;20.78;44.01;101539.31;5134272;27;20006;-70
2023/05/05 06:31:36;;;;;;;;;;;;;;;20.77;44.05;101538.44;5134134;27;19916;-70
2023/05/05 06:34:02;;;;;;;;;;;;;;;20.77;44.23;101554.66;5134799;27;19915;-70
2023/05/05 06:36:27;;;;;;;;;;;;;;;20.77;44.31;101561.91;5131382;27;19912;-70
2023/05/05 06:38:52;;;;;;;;;;;;;;;20.78;44.34;101560.94;5133904;27;19911;-71
2023/05/05 06:41:17;;;;;;;;;;;;;;;20.77;44.11;101562.75;5135617;27;19915;-69
2023/05/05 06:43:43;;;;;;;;;;;;;;;20.77;44.10;101553.81;5130080;27;19912;-69
2023/05/05 06:46:09;;;;;;;;;;;;;;;20.77;43.97;101551.09;5137497;27;19916;-69
2023/05/05 06:48:34;;;;;;;;;;;;;;;20.77;44.02;101557.34;5131700;27;19915;-69
2023/05/05 06:51:00;;;;;;;;;;;;;;;20.77;44.28;101557.34;5135348;27;20322;-69
2023/05/05 06:53:25;;;;;;;;;;;;;;;20.77;44.00;101561.91;5118294;27;19983;-69
2023/05/05 06:55:50;;;;;;;;;;;;;;;20.76;44.27;101561.06;5131775;27;19919;-69
2023/05/05 06:58:15;;;;;;;;;;;;;;;20.76;44.03;101562.94;5131620;27;20427;-69
2023/05/05 07:00:41;;;;;;;;;;;;;;;20.76;44.02;101557.53;5130957;27;19912;-70
2023/05/05 07:03:06;;;;;;;;;;;;;;;20.76;44.22;101561.06;5132729;27;19916;-68
2023/05/05 07:05:31;;;;;;;;;;;;;;;20.77;43.86;101562.75;5130829;27;19951;-69
2023/05/05 07:07:56;;;;;;;;;;;;;;;20.77;44.15;101560.06;5133578;27;20284;-69
2023/05/05 07:10:22;;;;;;;;;;;;;;;20.76;44.08;101568.34;5130293;27;19916;-69
2023/05/05 07:12:47;;;;;;;;;;;;;;;20.77;44.17;101570.84;5118750;28;19912;-69
2023/05/05 07:15:12;;;;;;;;;;;;;;;20.77;44.21;101570.03;5137426;27;19923;-68
2023/05/05 07:17:38;;;;;;;;;;;;;;;20.77;44.34;101573.56;5135007;27;19915;-69
2023/05/05 07:20:03;;;;;;;;;;;;;;;20.77;44.28;101573.56;5138277;27;19916;-69
2023/05/05 07:22:28;;;;;;;;;;;;;;;20.77;43.96;101576.25;5130390;27;20246;-70
2023/05/05 07:24:53;;;;;;;;;;;;;;;20.77;44.28;101580.81;5131830;27;19916;-69
2023/05/05 07:27:19;;;;;;;;;;;;;;;20.77;44.03;101578.97;5131985;27;19919;-69
2023/05/05 07:29:44;;;;;;;;;;;;;;;20.77;44.05;101583.53;5111887;27;20014;-69
2023/05/05 07:32:09;;;;;;;;;;;;;;;20.78;44.14;101582.53;5128734;27;19923;-69
2023/05/05 07:34:36;;;;;;;;;;;;;;;20.78;44.42;101582.53;5116378;27;19922;-69
2023/05/05 07:37:02;;;;;;;;;;;;;;;20.78;44.32;101586.09;5134052;27;19912;-69
2023/05/05 07:39:28;;;;;;;;;;;;;;;20.78;44.09;101590.66;5115909;27;19916;-68
2023/05/05 07:41:53;;;;;;;;;;;;;;;20.77;44.34;101584.38;5134958;27;19918;-69
2023/05/05 07:44:18;;;;;;;;;;;;;;;20.77;44.35;101583.53;5129654;27;19963;-69
2023/05/05 07:46:43;;;;;;;;;;;;;;;20.77;44.23;101589.78;5137265;27;20199;-69
2023/05/05 07:49:08;;;;;;;;;;;;;;;20.78;44.17;101596.06;5131125;27;19926;-68
2023/05/05 07:51:33;;;;;;;;;;;;;;;20.78;44.62;101590.66;5138630;27;19916;-69
2023/05/05 07:53:59;;;;;;;;;;;;;;;20.78;44.26;101604.16;5130067;27;19915;-69
2023/05/05 07:56:24;;;;;;;;;;;;;;;20.77;44.33;101595.19;5132629;27;19930;-69
2023/05/05 07:58:49;;;;;;;;;;;;;;;20.77;44.16;101597.88;5131626;27;19919;-69
2023/05/05 08:01:14;;;;;;;;;;;;;;;20.77;44.20;101600.59;5131304;27;19916;-69
2023/05/05 08:03:40;;;;;;;;;;;;;;;20.77;44.54;101599.75;5133931;27;19912;-69
2023/05/05 08:06:08;;;;;;;;;;;;;;;20.77;44.22;101599.75;5132206;27;19919;-69
2023/05/05 08:08:34;;;;;;;;;;;;;;;20.76;44.38;101598.91;5132137;27;19912;-69
2023/05/05 08:11:00;;;;;;;;;;;;;;;20.77;44.31;101599.75;5135718;27;20273;-68
2023/05/05 08:13:25;;;;;;;;;;;;;;;20.77;44.39;101595.19;5116820;27;19940;-68
2023/05/05 08:15:51;;;;;;;;;;;;;;;20.77;44.25;101602.44;5131405;28;19946;-69
2023/05/05 08:18:16;;;;;;;;;;;;;;;20.77;44.20;101594.34;5129815;27;19925;-69
2023/05/05 08:20:41;;;;;;;;;;;;;;;20.77;44.41;101597.03;5132692;28;19947;-70
2023/05/05 08:23:06;;;;;;;;;;;;;;;20.77;44.09;101597.03;5130127;27;19911;-69
2023/05/05 08:25:32;;;;;;;;;;;;;;;20.77;44.38;101594.34;5127830;28;19958;-69
2023/05/05 08:27:57;;;;;;;;;;;;;;;20.78;44.14;101601.47;5130595;28;19916;-69
2023/05/05 08:30:22;;;;;;;;;;;;;;;20.77;44.10;101592.47;5132929;28;19922;-69
2023/05/05 08:32:48;;;;;;;;;;;;;;;20.77;44.24;101592.47;5130813;28;19922;-69
2023/05/05 08:35:13;;;;;;;;;;;;;;;20.76;44.12;101585.38;5133796;28;19979;-69
2023/05/05 08:37:38;;;;;;;;;;;;;;;20.77;44.39;101595.19;5132517;28;19916;-69
2023/05/05 08:40:03;;;;;;;;;;;;;;;20.77;44.01;101600.59;5133117;28;19919;-69
2023/05/05 08:42:29;;;;;;;;;;;;;;;20.78;44.14;101602.31;5136264;28;19911;-69
2023/05/05 08:44:55;;;;;;;;;;;;;;;20.78;43.95;101596.06;5129963;28;19915;-69
2023/05/05 08:47:20;;;;;;;;;;;;;;;20.78;43.95;101610.41;5128266;28;19916;-69
2023/05/05 08:49:45;;;;;;;;;;;;;;;20.78;43.83;101610.41;5102712;27;19918;-69
2023/05/05 08:52:14;;;;;;;;;;;;;;;20.79;43.78;101605.84;5130860;28;19912;-68
2023/05/05 08:54:42;;;;;;;;;;;;;;;20.79;43.95;101605.84;5110958;28;19915;-70
2023/05/05 08:57:07;;;;;;;;;;;;;;;20.79;43.94;101604.00;5133279;28;20723;-69
2023/05/05 08:59:32;;;;;;;;;;;;;;;20.79;44.07;101605.84;5109891;28;19920;-70
2023/05/05 09:01:57;;;;;;;;;;;;;;;20.80;44.15;101615.63;5114365;27;19933;-69
2023/05/05 09:04:22;;;;;;;;;;;;;;;20.79;43.94;101609.41;5137178;27;19923;-69
2023/05/05 09:06:48;;;;;;;;;;;;;;;20.80;43.86;101611.06;5132544;27;19927;-69
2023/05/05 09:09:13;;;;;;;;;;;;;;;20.80;43.80;101611.06;5124684;27;19983;-70
2023/05/05 09:11:38;;;;;;;;;;;;;;;20.82;43.82;101608.22;5131737;27;19920;-71
2023/05/05 09:14:03;;;;;;;;;;;;;;;20.82;44.11;101613.63;5138742;27;19946;-70
2023/05/05 09:16:28;;;;;;;;;;;;;;;20.82;43.83;101614.47;5130804;27;19920;-70
2023/05/05 09:19:03;;;;;;;;;;;;;;;20.83;44.04;101613.47;5116675;27;19927;-70
2023/05/05 09:21:28;;;;;;;;;;;;;;;20.84;43.88;101614.31;5133418;27;19919;-70
2023/05/05 09:24:13;;;;;;;;;;;;;;;20.85;44.10;101618.69;5136000;27;19954;-70
2023/05/05 09:26:39;;;;;;;;;;;;;;;20.86;44.11;101617.72;5132310;27;19997;-70
2023/05/05 09:29:05;;;;;;;;;;;;;;;20.87;43.93;101622.94;5137775;27;19968;-70
2023/05/05 09:31:30;;;;;;;;;;;;;;;20.88;44.10;101618.38;5136729;27;19916;-71
2023/05/05 09:33:59;;;;;;;;;;;;;;;20.89;43.80;101617.34;5131574;27;19920;-71
2023/05/05 09:37:00;;;;;;;;;;;;;;;20.89;44.10;101612.78;5115710;27;19919;-71
2023/05/05 09:39:25;;;;;;;;;;;;;;;20.89;43.97;101609.25;5073544;28;19927;-71
2023/05/05 09:41:50;;;;;;;;;;;;;;;20.89;44.05;101617.34;5072318;28;19916;-71
2023/05/05 09:44:16;;;;;;;;;;;;;;;20.89;43.82;101614.66;5072044;28;19950;-70
2023/05/05 09:46:50;;;;;;;;;;;;;;;20.87;43.87;101614.81;5074127;28;19917;-70
2023/05/05 09:49:17;;;;;;;;;;;;;;;20.88;44.10;101612.97;5071814;28;19925;-70
2023/05/05 09:51:43;;;;;;;;;;;;;;;20.87;44.33;101605.88;5073584;28;19920;-70
2023/05/05 09:54:08;;;;;;;;;;;;;;;20.87;44.34;101616.69;5061158;28;19927;-70
2023/05/05 09:56:38;;;;;;;;;;;;;;;20.86;44.33;101615.00;5056146;28;19916;-72
2023/05/05 09:59:09;;;;;;;;;;;;;;;20.85;44.18;101607.88;5060522;28;19920;-71
2023/05/05 10:01:34;;;;;;;;;;;;;;;20.86;44.19;101609.59;5070274;28;19924;-71
2023/05/05 10:03:59;;;;;;;;;;;;;;;20.86;44.28;101606.91;5073822;28;19972;-71
2023/05/05 10:06:45;;;;;;;;;;;;;;;20.85;44.25;101603.31;5072539;28;19916;-71
2023/05/05 10:09:11;;;;;;;;;;;;;;;20.86;44.21;101599.63;5071903;28;19913;-71
2023/05/05 10:11:36;;;;;;;;;;;;;;;20.85;44.43;101603.31;5073253;28;19920;-70
2023/05/05 10:14:02;;;;;;;;;;;;;;;20.85;44.23;101608.72;5123195;27;19915;-72
2023/05/05 10:16:27;;;;;;;;;;;;;;;20.86;44.29;101604.19;5116524;27;19931;-72
2023/05/05 10:18:53;;;;;;;;;;;;;;;20.87;44.59;101601.31;5133652;27;19942;-72
2023/05/05 10:21:19;;;;;;;;;;;;;;;20.87;44.53;101597.78;5100109;27;19961;-73
2023/05/05 10:23:47;;;;;;;;;;;;;;;20.89;44.34;101593.03;5117231;27;19919;-71
2023/05/05 10:26:12;;;;;;;;;;;;;;;20.90;44.80;101587.47;5116963;27;20396;-73
2023/05/05 10:28:41;;;;;;;;;;;;;;;20.92;45.04;101590.84;5117444;27;19986;-73
2023/05/05 10:31:09;;;;;;;;;;;;;;;20.93;45.25;101588.97;5134158;27;19926;-73
2023/05/05 10:33:38;;;;;;;;;;;;;;;20.93;45.48;101587.13;5133722;27;19911;-72
2023/05/05 10:36:05;;;;;;;;;;;;;;;20.94;45.42;101586.13;5113584;27;19933;-71
2023/05/05 10:38:30;;;;;;;;;;;;;;;20.95;45.58;101582.41;5135336;27;20429;-72
2023/05/05 10:40:56;;;;;;;;;;;;;;;20.96;45.71;101585.97;5134175;27;19951;-73
2023/05/05 10:43:21;;;;;;;;;;;;;;;20.97;45.55;101584.94;5120500;27;19912;-74
2023/05/05 10:45:47;;;;;;;;;;;;;;;20.98;45.39;101581.22;5114667;27;20385;-73
2023/05/05 10:48:13;;;;;;;;;;;;;;;20.99;45.62;101573.97;5110574;27;19933;-72
2023/05/05 10:50:40;;;;;;;;;;;;;;;21.01;45.23;101567.38;5116934;27;19920;-71
2023/05/05 10:53:16;;;;;;;;;;;;;;;21.02;45.83;101566.34;5113830;27;19937;-73
2023/05/05 10:56:00;;;;;;;;;;;;;;;21.03;46.50;101569.94;5109892;27;20006;-72
2023/05/05 10:58:38;;;;;;;;;;;;;;;21.04;46.53;101567.06;5132483;27;19997;-73
2023/05/05 11:01:03;;;;;;;;;;;;;;;21.04;46.66;101567.06;5133892;27;19916;-72
2023/05/05 11:03:29;;;;;;;;;;;;;;;21.05;46.35;101565.19;5112533;27;19923;-73
2023/05/05 11:06:03;;;;;;;;;;;;;;;21.05;46.31;101560.63;5113778;27;19930;-72
2023/05/05 11:08:29;;;;;;;;;;;;;;;21.05;46.56;101563.31;5136087;27;19980;-73
2023/05/05 11:10:54;;;;;;;;;;;;;;;21.06;46.57;101565.00;5132856;27;19920;-73
2023/05/05 11:13:20;;;;;;;;;;;;;;;21.06;46.26;101565.00;5129713;27;19982;-73
2023/05/05 11:15:45;;;;;;;;;;;;;;;21.06;46.66;101559.59;5130434;27;19923;-73
2023/05/05 11:18:30;;;;;;;;;;;;;;;21.07;46.74;101563.16;5132815;27;19941;-73
2023/05/05 11:20:58;;;;;;;;;;;;;;;21.07;46.60;101555.03;5113329;27;19997;-73
2023/05/05 11:23:23;;;;;;;;;;;;;;;21.08;46.73;101564.88;5129396;27;19915;-74
2023/05/05 11:25:50;;;;;;;;;;;;;;;21.06;46.58;101556.06;5134987;27;19925;-74
2023/05/05 11:28:16;;;;;;;;;;;;;;;21.08;46.58;101557.59;5122197;28;19916;-73
2023/05/05 11:31:04;;;;;;;;;;;;;;;21.10;46.83;101560.13;5120786;27;19923;-73
2023/05/05 11:33:33;;;;;;;;;;;;;;;21.09;46.78;101561.97;5118600;27;19912;-74
2023/05/05 11:36:02;;;;;;;;;;;;;;;21.10;46.94;101562.81;5133209;27;19938;-74
2023/05/05 11:38:36;;;;;;;;;;;;;;;21.09;46.49;101561.13;5115012;27;19916;-73
2023/05/05 11:41:05;;;;;;;;;;;;;;;21.10;46.65;101597.97;5131638;27;19919;-72
2023/05/05 11:43:30;;;;;;;;;;;;;;;21.09;46.73;101605.25;5113036;27;19915;-74
2023/05/05 11:46:24;;;;;;;;;;;;;;;21.09;47.03;101589.03;5130309;27;19991;-74
2023/05/05 11:48:52;;;;;;;;;;;;;;;21.09;47.07;101599.84;5113115;27;19939;-72
2023/05/05 11:51:18;;;;;;;;;;;;;;;21.10;46.91;101601.53;5128529;27;19916;-72
2023/05/05 11:53:44;;;;;;;;;;;;;;;21.09;46.81;101607.09;5135073;27;19920;-72
2023/05/05 11:56:09;;;;;;;;;;;;;;;21.11;46.97;101624.00;5123007;28;19923;-71
2023/05/05 11:58:34;;;;;;;;;;;;;;;21.10;46.92;101630.41;5140446;27;19911;-72
2023/05/05 12:01:03;;;;;;;;;;;;;;;21.09;47.27;101621.47;5131462;27;19915;-72
2023/05/05 12:03:32;;;;;;;;;;;;;;;21.10;47.20;101627.72;5132663;27;19916;-69
2023/05/05 12:05:57;;;;;;;;;;;;;;;21.09;47.07;101623.34;5114284;27;19923;-72
2023/05/05 12:08:22;;;;;;;;;;;;;;;21.09;46.88;101635.00;5124032;28;19915;-72
2023/05/05 12:10:48;;;;;;;;;;;;;;;21.09;46.68;101635.00;5115647;28;19915;-73
2023/05/05 12:13:16;;;;;;;;;;;;;;;21.08;46.91;101636.00;5129081;28;19919;-76
2023/05/05 12:15:41;;;;;;;;;;;;;;;21.07;46.58;101646.97;5129750;27;19924;-73
2023/05/05 12:18:16;;;;;;;;;;;;;;;21.07;46.73;101657.78;5129313;27;19919;-74
2023/05/05 12:20:41;;;;;;;;;;;;;;;21.06;46.67;101666.91;5134788;28;19951;-73
2023/05/05 12:23:07;;;;;;;;;;;;;;;21.05;46.60;101685.00;5112608;28;19973;-73
2023/05/05 12:25:36;;;;;;;;;;;;;;;21.05;46.74;101682.28;5116836;28;20370;-73
2023/05/05 12:28:02;;;;;;;;;;;;;;;21.06;46.90;101691.25;5121867;28;19916;-73
2023/05/05 12:30:27;;;;;;;;;;;;;;;21.05;46.58;101692.25;5129679;28;19946;-73
2023/05/05 12:32:59;;;;;;;;;;;;;;;21.04;46.73;101698.69;5114182;28;19912;-73